Radiosonde details



Informationen :

Serial : X5211271
Type : Vaisala RS41-NG
Date of production : 22.12.2025
Frequency : 404.800MHz
Launchsite : Boise Air Terminal
Nearest town : Cascade, US (15.1km)

Altitude (Max) : 34904m at 2026-09-01 18:54:22
Speed (Max) : 107km/h at altitude 13305m

Average speed : 46km/h
Average ascent rate : 5m/s
Average descent rate : -11m/s
Ascent rate (Max) : 10.7m/s
Descent rate (Max): -35.9m/s

First frame :
KE7DJD at 2026-09-01 17:05:04 at altitude 1348m (OG: 1306m)
Last frame :
KE7DJD at 2026-09-01 19:40:39 at altitude 2813m (OG: 2771m)

Flighttime : 2h35m35s
Ascent time : 1h49m18s
Descent time : 46m17s
Uptime : -
Killtimer : 7h44m

Distance (Straight line distance): 101km

Distance (Route):


Frames : 439


Measurement :

Temperature : 9.4°C
Humidity : 63.7%
Pressure : 0hPa


Vertical profile (SkewT) :


Elevation profile :



Receiving stations :


Receiver Frames First received Last received
KE7DJD 439 2026-09-01 17:05:04 2026-09-01 19:40:39

Share per receiver :



All frames :


Receiver Date Latitude Longitude Direction Speed Altitude Climb Temperature Humidity Pressure Voltage Killtimer Uptime BKT XDATA
KE7DJD2026-09-01 19:40:3944.44339-115.8810241°18km/h2813m-4.7m/s9.4°C63.7%0hPa0V07:44:0000:00:0000:00:00
KE7DJD2026-09-01 19:40:1744.44255-115.8816018°18km/h2924m-5.1m/s8.6°C66.9%0hPa0V07:44:0000:00:0000:00:00
KE7DJD2026-09-01 19:39:5644.44164-115.88171360°18km/h3026m-4.9m/s7.6°C69.9%0hPa0V07:45:0000:00:0000:00:00
KE7DJD2026-09-01 19:39:3644.44063-115.88140343°26km/h3126m-5.7m/s6.8°C71.9%0hPa0V07:45:0000:00:0000:00:00
KE7DJD2026-09-01 19:39:1544.43919-115.88112357°29km/h3234m-4.7m/s5.8°C76.2%0hPa0V07:45:0000:00:0000:00:00
KE7DJD2026-09-01 19:38:5544.43764-115.88097361°35km/h3333m-5.0m/s5.0°C77.6%0hPa0V07:46:0000:00:0000:00:00
KE7DJD2026-09-01 19:38:3444.43576-115.88098359°37km/h3438m-5.2m/s4.1°C80.3%0hPa0V07:46:0000:00:0000:00:00
KE7DJD2026-09-01 19:38:1344.43390-115.88084359°33km/h3544m-6.0m/s3.2°C82.1%0hPa0V07:47:0000:00:0000:00:00
KE7DJD2026-09-01 19:37:5244.43209-115.88036346°35km/h3659m-5.6m/s2.0°C89.1%0hPa0V07:47:0000:00:0000:00:00
KE7DJD2026-09-01 19:37:3144.42998-115.87958349°42km/h3768m-6.2m/s1.7°C84.2%0hPa0V07:47:0000:00:0000:00:00
KE7DJD2026-09-01 19:37:1044.42739-115.87875350°53km/h3886m-5.7m/s0.9°C87.5%0hPa0V07:48:0000:00:0000:00:00
KE7DJD2026-09-01 19:36:5044.42465-115.87783346°58km/h4004m-5.9m/s0.1°C84.2%0hPa0V07:48:0000:00:0000:00:00
KE7DJD2026-09-01 19:36:2944.42164-115.87674346°60km/h4132m-6.3m/s-0.6°C79.4%0hPa0V07:49:0000:00:0000:00:00
KE7DJD2026-09-01 19:36:0844.41846-115.87590352°60km/h4258m-6.0m/s-1.0°C75.7%0hPa0V07:49:0000:00:0000:00:00
KE7DJD2026-09-01 19:35:4844.41529-115.87523354°66km/h4379m-6.0m/s-1.9°C73.0%0hPa0V07:49:0000:00:0000:00:00
KE7DJD2026-09-01 19:35:2744.41180-115.87467356°66km/h4506m-6.0m/s-3.0°C79.6%0hPa0V07:50:0000:00:0000:00:00
KE7DJD2026-09-01 19:35:0644.40817-115.87422354°69km/h4633m-5.9m/s-3.9°C82.2%0hPa0V07:50:0000:00:0000:00:00
KE7DJD2026-09-01 19:34:4544.40454-115.87354351°66km/h4755m-6.2m/s-4.5°C80.2%0hPa0V07:50:0000:00:0000:00:00
KE7DJD2026-09-01 19:34:2544.40124-115.87259350°66km/h4874m-6.2m/s-5.5°C82.4%0hPa0V07:50:0000:00:0000:00:00
KE7DJD2026-09-01 19:34:0444.39782-115.87152349°64km/h4993m-6.0m/s-6.6°C86.7%0hPa0V07:50:0000:00:0000:00:00
KE7DJD2026-09-01 19:33:4444.39490-115.87023341°57km/h5107m-5.8m/s-7.4°C81.7%0hPa0V07:51:0000:00:0000:00:00
KE7DJD2026-09-01 19:33:2344.39207-115.86863336°58km/h5225m-5.7m/s-8.2°C78.8%0hPa0V07:51:0000:00:0000:00:00
KE7DJD2026-09-01 19:33:0244.38932-115.86689337°55km/h5341m-5.5m/s-9.3°C83.7%0hPa0V07:52:0000:00:0000:00:00
KE7DJD2026-09-01 19:32:4144.38664-115.86523336°57km/h5456m-5.5m/s-10.4°C89.3%0hPa0V07:52:0000:00:0000:00:00
KE7DJD2026-09-01 19:32:2144.38409-115.86356332°53km/h5565m-5.1m/s-11.3°C95.0%0hPa0V07:52:0000:00:0000:00:00
KE7DJD2026-09-01 19:32:0044.38173-115.86172333°49km/h5679m-5.3m/s-11.9°C93.9%0hPa0V07:53:0000:00:0000:00:00
KE7DJD2026-09-01 19:31:3944.37930-115.85993334°55km/h5794m-5.7m/s-12.8°C92.0%0hPa0V07:53:0000:00:0000:00:00
KE7DJD2026-09-01 19:31:1844.37670-115.85829337°53km/h5909m-5.4m/s-13.6°C83.8%0hPa0V07:54:0000:00:0000:00:00
KE7DJD2026-09-01 19:30:5744.37417-115.85684341°49km/h6024m-5.4m/s-14.5°C85.7%0hPa0V07:54:0000:00:0000:00:00
KE7DJD2026-09-01 19:30:3644.37157-115.85558344°55km/h6142m-5.8m/s-15.4°C81.6%0hPa0V07:55:0000:00:0000:00:00
KE7DJD2026-09-01 19:30:1544.36881-115.85445346°57km/h6264m-5.9m/s-16.6°C83.5%0hPa0V07:55:0000:00:0000:00:00
KE7DJD2026-09-01 19:29:5444.36593-115.85358349°58km/h6387m-6.1m/s-17.4°C88.8%0hPa0V07:55:0000:00:0000:00:00
KE7DJD2026-09-01 19:29:3344.36276-115.85296356°60km/h6510m-6.0m/s-17.9°C86.0%0hPa0V07:56:0000:00:0000:00:00
KE7DJD2026-09-01 19:28:3244.35262-115.85252358°69km/h6873m-6.5m/s-20.1°C77.3%0hPa0V07:56:0000:00:0000:00:00
KE7DJD2026-09-01 19:28:1144.34888-115.85231359°69km/h7003m-6.2m/s-21.2°C78.8%0hPa0V07:56:0000:00:0000:00:00
KE7DJD2026-09-01 19:27:5044.34508-115.8524375km/h7128m-5.9m/s-22.3°C82.6%0hPa0V07:57:0000:00:0000:00:00
KE7DJD2026-09-01 19:27:2944.34127-115.8529169km/h7255m-6.4m/s-22.6°C61.7%0hPa0V07:57:0000:00:0000:00:00
KE7DJD2026-09-01 19:27:0944.33782-115.8535368km/h7380m-6.7m/s-23.4°C53.6%0hPa0V07:58:0000:00:0000:00:00
KE7DJD2026-09-01 19:26:4844.33434-115.8542411°66km/h7520m-6.6m/s-24.5°C59.7%0hPa0V07:58:0000:00:0000:00:00
KE7DJD2026-09-01 19:26:2744.33091-115.8549962km/h7658m-6.7m/s-25.8°C66.5%0hPa0V07:58:0000:00:0000:00:00
KE7DJD2026-09-01 19:26:0644.32760-115.8556162km/h7801m-6.6m/s-26.7°C70.1%0hPa0V07:59:0000:00:0000:00:00
KE7DJD2026-09-01 19:25:4644.32466-115.8563312°57km/h7935m-6.7m/s-27.6°C69.2%0hPa0V07:59:0000:00:0000:00:00
KE7DJD2026-09-01 19:25:2544.32168-115.8573016°60km/h8077m-7.0m/s-28.7°C70.4%0hPa0V08:00:0000:00:0000:00:00
KE7DJD2026-09-01 19:25:0544.31877-115.8586519°60km/h8211m-6.7m/s-29.7°C70.5%0hPa0V08:00:0000:00:0000:00:00
KE7DJD2026-09-01 19:24:4444.31588-115.8602827°60km/h8351m-6.9m/s-30.5°C62.6%0hPa0V08:00:0000:00:0000:00:00
KE7DJD2026-09-01 19:24:2444.31318-115.8620526°60km/h8484m-6.9m/s-31.5°C61.3%0hPa0V08:01:0000:00:0000:00:00
KE7DJD2026-09-01 19:24:0444.31052-115.8638828°58km/h8620m-6.9m/s-32.5°C59.4%0hPa0V08:01:0000:00:0000:00:00
KE7DJD2026-09-01 19:23:4344.30787-115.8658729°55km/h8763m-6.9m/s-33.7°C60.9%0hPa0V08:01:0000:00:0000:00:00
KE7DJD2026-09-01 19:23:0244.30295-115.8695931°51km/h9051m-7.1m/s-36.1°C63.0%0hPa0V08:01:0000:00:0000:00:00
KE7DJD2026-09-01 19:22:4244.30061-115.8713932°51km/h9194m-7.2m/s-37.4°C62.8%0hPa0V08:02:0000:00:0000:00:00
KE7DJD2026-09-01 19:22:2144.29821-115.8732129°51km/h9347m-7.3m/s-38.6°C55.5%0hPa0V08:02:0000:00:0000:00:00
KE7DJD2026-09-01 19:22:0144.29584-115.8747924°55km/h9494m-7.4m/s-39.7°C53.9%0hPa0V08:03:0000:00:0000:00:00
KE7DJD2026-09-01 19:21:4044.29292-115.8763421°64km/h9645m-7.2m/s-41.0°C57.2%0hPa0V08:03:0000:00:0000:00:00
KE7DJD2026-09-01 19:21:1944.28956-115.8778819°73km/h9793m-7.4m/s-42.3°C52.5%0hPa0V08:03:0000:00:0000:00:00
KE7DJD2026-09-01 19:20:5844.28586-115.8794017°73km/h9944m-7.6m/s-43.5°C45.4%0hPa0V08:04:0000:00:0000:00:00
KE7DJD2026-09-01 19:20:3844.28232-115.8806612°71km/h10086m-7.5m/s-44.8°C49.6%0hPa0V08:04:0000:00:0000:00:00
KE7DJD2026-09-01 19:20:1744.27859-115.8817510°73km/h10236m-7.1m/s-46.2°C51.7%0hPa0V08:05:0000:00:0000:00:00
KE7DJD2026-09-01 19:19:5644.27468-115.8827078km/h10384m-6.8m/s-47.6°C59.5%0hPa0V08:05:0000:00:0000:00:00
KE7DJD2026-09-01 19:19:3644.27075-115.8835110°80km/h10527m-7.0m/s-48.8°C66.5%0hPa0V08:05:0000:00:0000:00:00
KE7DJD2026-09-01 19:19:1544.26655-115.8845110°84km/h10676m-7.2m/s-50.2°C67.5%0hPa0V08:06:0000:00:0000:00:00
KE7DJD2026-09-01 19:18:5544.26234-115.8853586km/h10821m-7.2m/s-51.5°C62.4%0hPa0V08:06:0000:00:0000:00:00
KE7DJD2026-09-01 19:18:3444.25780-115.8861088km/h10976m-7.1m/s-52.8°C67.3%0hPa0V08:07:0000:00:0000:00:00
KE7DJD2026-09-01 19:18:1444.25346-115.8868611°86km/h11123m-7.5m/s-54.1°C60.4%0hPa0V08:07:0000:00:0000:00:00
KE7DJD2026-09-01 19:17:5344.24889-115.8881813°88km/h11279m-7.6m/s-55.1°C52.0%0hPa0V08:07:0000:00:0000:00:00
KE7DJD2026-09-01 19:17:3344.24452-115.8896417°93km/h11428m-7.6m/s-55.7°C44.9%0hPa0V08:07:0000:00:0000:00:00
KE7DJD2026-09-01 19:17:1244.23990-115.8916920°88km/h11586m-7.4m/s-55.6°C37.1%0hPa0V08:07:0000:00:0000:00:00
KE7DJD2026-09-01 19:16:5144.23564-115.8939823°84km/h11745m-7.4m/s-56.4°C34.3%0hPa0V08:08:0000:00:0000:00:00
KE7DJD2026-09-01 19:16:3044.23141-115.8963527°84km/h11907m-7.9m/s-56.8°C27.3%0hPa0V08:08:0000:00:0000:00:00
KE7DJD2026-09-01 19:16:0944.22770-115.8990329°75km/h12072m-7.8m/s-56.9°C18.2%0hPa0V08:09:0000:00:0000:00:00
KE7DJD2026-09-01 19:15:4944.22446-115.9014727°69km/h12229m-8.0m/s-55.6°C10.6%0hPa0V08:09:0000:00:0000:00:00
KE7DJD2026-09-01 19:15:2844.22106-115.9032916°71km/h12401m-8.3m/s-55.0°C7.2%0hPa0V08:09:0000:00:0000:00:00
KE7DJD2026-09-01 19:15:0844.21752-115.9047018°73km/h12570m-8.4m/s-55.0°C6.2%0hPa0V08:10:0000:00:0000:00:00
KE7DJD2026-09-01 19:14:4744.21345-115.9060113°82km/h12747m-8.6m/s-55.9°C5.5%0hPa0V08:10:0000:00:0000:00:00
KE7DJD2026-09-01 19:14:0544.20409-115.9103528°100km/h13116m-8.8m/s-51.7°C2.1%0hPa0V08:11:0000:00:0000:00:00
KE7DJD2026-09-01 19:13:4444.19946-115.9141236°106km/h13305m-9.1m/s-52.1°C1.9%0hPa0V08:11:0000:00:0000:00:00
KE7DJD2026-09-01 19:13:2444.19515-115.9186642°99km/h13486m-9.4m/s-51.8°C1.7%0hPa0V08:12:0000:00:0000:00:00
KE7DJD2026-09-01 19:13:0344.19172-115.9230244°75km/h13672m-9.2m/s-52.4°C1.6%0hPa0V08:12:0000:00:0000:00:00
KE7DJD2026-09-01 19:12:4244.18886-115.9261634°69km/h13867m-9.3m/s-53.3°C1.6%0hPa0V08:13:0000:00:0000:00:00
KE7DJD2026-09-01 19:12:2144.18544-115.9287630°75km/h14067m-10.1m/s-54.1°C1.7%0hPa0V08:13:0000:00:0000:00:00
KE7DJD2026-09-01 19:12:0144.18234-115.9315331°71km/h14259m-9.8m/s-53.1°C1.6%0hPa0V08:13:0000:00:0000:00:00
KE7DJD2026-09-01 19:11:4044.17876-115.9341528°80km/h14465m-10.1m/s-53.9°C1.8%0hPa0V08:13:0000:00:0000:00:00
KE7DJD2026-09-01 19:11:2044.17532-115.9370631°82km/h14662m-9.9m/s-53.6°C1.6%0hPa0V08:13:0000:00:0000:00:00
KE7DJD2026-09-01 19:10:5844.17132-115.9405135°80km/h14882m-10.1m/s-53.0°C1.5%0hPa0V08:14:0000:00:0000:00:00
KE7DJD2026-09-01 19:10:3744.16780-115.9438236°78km/h15094m-10.0m/s-53.2°C1.6%0hPa0V08:14:0000:00:0000:00:00
KE7DJD2026-09-01 19:10:1644.16455-115.9471343°75km/h15311m-10.4m/s-53.4°C1.5%0hPa0V08:14:0000:00:0000:00:00
KE7DJD2026-09-01 19:09:5544.16130-115.9510345°75km/h15530m-10.8m/s-53.7°C1.5%0hPa0V08:15:0000:00:0000:00:00
KE7DJD2026-09-01 19:09:3444.15880-115.9544642°57km/h15756m-10.6m/s-54.6°C1.6%0hPa0V08:15:0000:00:0000:00:00
KE7DJD2026-09-01 19:09:1444.15665-115.9566134°53km/h15976m-11.4m/s-55.1°C1.5%0hPa0V08:16:0000:00:0000:00:00
KE7DJD2026-09-01 19:08:5344.15403-115.9591636°60km/h16212m-11.6m/s-56.1°C1.6%0hPa0V08:16:0000:00:0000:00:00
KE7DJD2026-09-01 19:08:3244.15163-115.9620445°60km/h16454m-11.5m/s-56.3°C1.6%0hPa0V08:16:0000:00:0000:00:00
KE7DJD2026-09-01 19:08:1144.14905-115.9644235°58km/h16700m-11.7m/s-55.4°C1.5%0hPa0V08:17:0000:00:0000:00:00
KE7DJD2026-09-01 19:07:5044.14655-115.9670941°49km/h16951m-12.1m/s-54.9°C1.4%0hPa0V08:17:0000:00:0000:00:00
KE7DJD2026-09-01 19:07:3044.14458-115.9687731°40km/h17192m-12.5m/s-54.8°C1.3%0hPa0V08:18:0000:00:0000:00:00
KE7DJD2026-09-01 19:07:0944.14275-115.9701419°42km/h17449m-12.5m/s-55.3°C1.3%0hPa0V08:18:0000:00:0000:00:00
KE7DJD2026-09-01 19:06:4944.14105-115.9707335km/h17701m-13.0m/s-55.1°C1.3%0hPa0V08:18:0000:00:0000:00:00
KE7DJD2026-09-01 19:06:2844.13949-115.9714117°29km/h17974m-13.8m/s-56.0°C1.3%0hPa0V08:18:0000:00:0000:00:00
KE7DJD2026-09-01 19:06:0744.13733-115.9725020°44km/h18254m-13.5m/s-57.1°C1.4%0hPa0V08:18:0000:00:0000:00:00
KE7DJD2026-09-01 19:05:4644.13562-115.9737929°29km/h18542m-14.4m/s-55.3°C1.2%0hPa0V08:19:0000:00:0000:00:00
KE7DJD2026-09-01 19:05:2544.13379-115.9743011°31km/h18841m-14.2m/s-54.7°C1.2%0hPa0V08:19:0000:00:0000:00:00
KE7DJD2026-09-01 19:05:0444.13244-115.9749126°22km/h19143m-14.5m/s-56.4°C1.4%0hPa0V08:20:0000:00:0000:00:00
KE7DJD2026-09-01 19:04:4444.13112-115.9754845°35km/h19431m-14.4m/s-54.9°C1.3%0hPa0V08:20:0000:00:0000:00:00
KE7DJD2026-09-01 19:04:2344.13053-115.9772775°18km/h19746m-14.7m/s-53.7°C1.1%0hPa0V08:20:0000:00:0000:00:00
KE7DJD2026-09-01 19:04:0344.12996-115.9779320km/h20059m-15.7m/s-54.4°C1.2%0hPa0V08:21:0000:00:0000:00:00
KE7DJD2026-09-01 19:03:4244.12886-115.9787361°18km/h20401m-16.6m/s-53.3°C1.1%0hPa0V08:21:0000:00:0000:00:00
KE7DJD2026-09-01 19:03:0144.12791-115.9798645°15km/h21111m-17.8m/s-53.0°C1.1%0hPa0V08:22:0000:00:0000:00:00
KE7DJD2026-09-01 19:02:4044.12754-115.98003310°13km/h21492m-18.8m/s-52.4°C1.0%0hPa0V08:22:0000:00:0000:00:00
KE7DJD2026-09-01 19:02:1944.12681-115.9798618km/h21886m-19.0m/s-52.3°C1.0%0hPa0V08:23:0000:00:0000:00:00
KE7DJD2026-09-01 19:01:5944.12555-115.9803242°26km/h22273m-19.7m/s-54.3°C1.1%0hPa0V08:23:0000:00:0000:00:00
KE7DJD2026-09-01 19:01:3944.12536-115.98093189°9km/h22672m-20.4m/s-53.0°C1.0%0hPa0V08:24:0000:00:0000:00:00
KE7DJD2026-09-01 19:01:1844.12456-115.97995349°29km/h23101m-20.8m/s-52.9°C1.0%0hPa0V08:24:0000:00:0000:00:00
KE7DJD2026-09-01 19:00:5844.12349-115.9808067°22km/h23521m-21.5m/s-52.5°C0.9%0hPa0V08:24:0000:00:0000:00:00
KE7DJD2026-09-01 19:00:3744.12299-115.98145359°20km/h23978m-22.2m/s-52.3°C1.0%0hPa0V08:24:0000:00:0000:00:00
KE7DJD2026-09-01 19:00:1644.12238-115.9819757°13km/h24450m-22.8m/s-51.0°C0.8%0hPa0V08:24:0000:00:0000:00:00
KE7DJD2026-09-01 18:59:5544.12227-115.9824732°11km/h24941m-23.9m/s-51.5°C0.9%0hPa0V08:25:0000:00:0000:00:00
KE7DJD2026-09-01 18:59:3444.12184-115.9828525°22km/h25440m-23.2m/s-50.5°C0.9%0hPa0V08:25:0000:00:0000:00:00
KE7DJD2026-09-01 18:59:1444.12172-115.9831827°2km/h25880m-19.5m/s-48.9°C0.8%0hPa0V08:25:0000:00:0000:00:00
KE7DJD2026-09-01 18:58:5344.12182-115.9831234°11km/h26374m-24.9m/s-48.5°C0.7%0hPa0V00:00:0000:00:0000:00:00
KE7DJD2026-09-01 18:58:3244.12186-115.98324281°7km/h26922m-26.2m/s-50.3°C0.8%0hPa0V00:00:0000:00:0000:00:00
KE7DJD2026-09-01 18:58:0444.12214-115.98311188°13km/h27689m-28.7m/s-49.2°C0.8%0hPa0V00:00:0000:00:0000:00:00
KE7DJD2026-09-01 18:57:2344.12202-115.9818528°5km/h28950m-32.4m/s-47.2°C0.7%0hPa0V00:00:0000:00:0000:00:00
KE7DJD2026-09-01 18:56:5344.12195-115.98102328°27km/h29989m-35.9m/s-44.8°C0.6%0hPa0V00:00:0000:00:0000:00:00
KE7DJD2026-09-01 18:56:0644.12144-115.98132103°22km/h31687m-34.1m/s-42.6°C0.5%0hPa0V08:29:0000:00:0000:00:00
KE7DJD2026-09-01 18:55:4644.12175-115.98145272°9km/h32309m-29.5m/s-42.5°C0.6%0hPa0V00:00:0000:00:0000:00:00
KE7DJD2026-09-01 18:55:2544.12208-115.98146284°26km/h32971m-35.3m/s-40.2°C0.5%0hPa0V00:00:0000:00:0000:00:00
KE7DJD2026-09-01 18:55:0444.12263-115.98094235°42km/h33650m-32.2m/s-38.5°C0.4%0hPa0V00:00:0000:00:0000:00:00
KE7DJD2026-09-01 18:54:2244.12231-115.9799060°57km/h34904m4.0m/s-36.3°C0.3%0hPa0V00:00:0000:00:0000:00:00
KE7DJD2026-09-01 18:54:0244.12109-115.9792860°31km/h34790m10.7m/s-36.0°C0.4%0hPa0V00:00:0000:00:0000:00:00
KE7DJD2026-09-01 18:53:4144.12049-115.9786187°26km/h34669m7.2m/s-35.9°C0.3%0hPa0V00:00:0000:00:0000:00:00
KE7DJD2026-09-01 18:53:2044.12041-115.97767124°35km/h34554m3.1m/s-36.5°C0.3%0hPa0V00:00:0000:00:0000:00:00
KE7DJD2026-09-01 18:53:0044.12040-115.97681130°37km/h34445m4.9m/s-37.8°C0.4%0hPa0V00:00:0000:00:0000:00:00
KE7DJD2026-09-01 18:52:3944.12083-115.97662144°44km/h34333m1.6m/s-38.2°C0.4%0hPa0V00:00:0000:00:0000:00:00
KE7DJD2026-09-01 18:52:1944.12118-115.97664134°46km/h34226m2.8m/s-39.0°C0.4%0hPa0V00:00:0000:00:0000:00:00
KE7DJD2026-09-01 18:51:5844.12121-115.97677135°18km/h34113m3.0m/s-39.2°C0.5%0hPa0V00:00:0000:00:0000:00:00
KE7DJD2026-09-01 18:51:3744.12108-115.97623284°16km/h33991m8.6m/s-38.8°C0.4%0hPa0V00:00:0000:00:0000:00:00
KE7DJD2026-09-01 18:51:1744.12119-115.97501274°24km/h33869m8.1m/s-38.3°C0.4%0hPa0V00:00:0000:00:0000:00:00
KE7DJD2026-09-01 18:50:5644.12190-115.97311268°44km/h33734m9.2m/s-38.4°C0.4%0hPa0V00:00:0000:00:0000:00:00
KE7DJD2026-09-01 18:50:3544.12289-115.97191287°35km/h33597m4.2m/s-38.3°C0.4%0hPa0V00:00:0000:00:0000:00:00
KE7DJD2026-09-01 18:50:1444.12354-115.97135290°11km/h33464m5.0m/s-38.3°C0.4%0hPa0V00:00:0000:00:0000:00:00
KE7DJD2026-09-01 18:49:5344.12419-115.97143127°31km/h33328m9.3m/s-39.6°C0.5%0hPa0V00:00:0000:00:0000:00:00
KE7DJD2026-09-01 18:49:3344.12501-115.97147133°33km/h33199m8.0m/s-39.0°C0.4%0hPa0V00:00:0000:00:0000:00:00
KE7DJD2026-09-01 18:49:1244.12553-115.97154103°33km/h33074m3.8m/s-39.2°C0.4%0hPa0V00:00:0000:00:0000:00:00
KE7DJD2026-09-01 18:48:5144.12564-115.97134294°15km/h32950m7.5m/s-39.5°C0.5%0hPa0V00:00:0000:00:0000:00:00
KE7DJD2026-09-01 18:48:3044.12596-115.97122295°26km/h32832m2.7m/s-40.1°C0.4%0hPa0V00:00:0000:00:0000:00:00
KE7DJD2026-09-01 18:48:1044.12653-115.9720632°7km/h32721m5.1m/s-40.7°C0.5%0hPa0V00:00:0000:00:0000:00:00
KE7DJD2026-09-01 18:47:4944.12686-115.97266110°37km/h32603m5.3m/s-40.8°C0.5%0hPa0V00:00:0000:00:0000:00:00
KE7DJD2026-09-01 18:47:2844.12705-115.97298121°15km/h32488m5.8m/s-42.6°C0.6%0hPa0V00:00:0000:00:0000:00:00
KE7DJD2026-09-01 18:47:0844.12739-115.97280287°31km/h32372m9.6m/s-43.0°C0.6%0hPa0V00:00:0000:00:0000:00:00
KE7DJD2026-09-01 18:46:4744.12794-115.97192285°29km/h32245m3.9m/s-42.1°C0.6%0hPa0V00:00:0000:00:0000:00:00
KE7DJD2026-09-01 18:46:2744.12852-115.97185191°11km/h32123m6.5m/s-41.6°C0.5%0hPa0V00:00:0000:00:0000:00:00
KE7DJD2026-09-01 18:46:0644.12912-115.97263123°44km/h31987m6.0m/s-41.9°C0.5%0hPa0V00:00:0000:00:0000:00:00
KE7DJD2026-09-01 18:45:4644.12980-115.97424108°42km/h31867m3.4m/s-42.1°C0.5%0hPa0V00:00:0000:00:0000:00:00
KE7DJD2026-09-01 18:45:2644.13043-115.97581122°31km/h31743m6.1m/s-42.9°C0.5%0hPa0V00:00:0000:00:0000:00:00
KE7DJD2026-09-01 18:45:0544.13034-115.9772195°46km/h31615m6.8m/s-43.0°C0.5%0hPa0V00:00:0000:00:0000:00:00
KE7DJD2026-09-01 18:44:4544.12944-115.9786265°18km/h31499m5.2m/s-43.7°C0.6%0hPa0V00:00:0000:00:0000:00:00
KE7DJD2026-09-01 18:44:2444.12875-115.97910288°4km/h31383m3.9m/s-43.4°C0.6%0hPa0V00:00:0000:00:0000:00:00
KE7DJD2026-09-01 18:44:0344.12890-115.97930144°33km/h31264m5.5m/s-43.1°C0.6%0hPa0V00:00:0000:00:0000:00:00
KE7DJD2026-09-01 18:43:4244.12965-115.97913232°31km/h31149m7.7m/s-43.3°C0.6%0hPa0V00:00:0000:00:0000:00:00
KE7DJD2026-09-01 18:43:2244.13034-115.97906256°31km/h31037m4.8m/s-43.6°C0.6%0hPa0V00:00:0000:00:0000:00:00
KE7DJD2026-09-01 18:43:0144.13005-115.9790355°15km/h30915m5.5m/s-43.8°C0.6%0hPa0V00:00:0000:00:0000:00:00
KE7DJD2026-09-01 18:42:4044.12985-115.97877256°18km/h30795m9.4m/s-43.4°C0.6%0hPa0V00:00:0000:00:0000:00:00
KE7DJD2026-09-01 18:42:1944.13030-115.97797258°20km/h30663m6.5m/s-43.2°C0.6%0hPa0V00:00:0000:00:0000:00:00
KE7DJD2026-09-01 18:41:5844.13074-115.97801155°9km/h30526m7.1m/s-43.4°C0.6%0hPa0V00:00:0000:00:0000:00:00
KE7DJD2026-09-01 18:41:3944.13107-115.97847205°27km/h30401m8.5m/s-44.3°C0.6%0hPa0V00:00:0000:00:0000:00:00
KE7DJD2026-09-01 18:41:1844.13098-115.9790054°9km/h30274m6.6m/s-44.9°C0.6%0hPa0V00:00:0000:00:0000:00:00
KE7DJD2026-09-01 18:40:5744.13013-115.9789513°22km/h30143m6.1m/s-44.5°C0.6%0hPa0V00:00:0000:00:0000:00:00
KE7DJD2026-09-01 18:40:3744.12901-115.97789320°33km/h30020m6.1m/s-45.1°C0.7%0hPa0V00:00:0000:00:0000:00:00
KE7DJD2026-09-01 18:40:1644.12791-115.97645328°33km/h29898m4.6m/s-45.1°C0.6%0hPa0V00:00:0000:00:0000:00:00
KE7DJD2026-09-01 18:39:5644.12756-115.97454287°49km/h29780m5.5m/s-45.4°C0.7%0hPa0V00:00:0000:00:0000:00:00
KE7DJD2026-09-01 18:39:3544.12788-115.97274230°2km/h29668m6.8m/s-45.7°C0.7%0hPa0V00:00:0000:00:0000:00:00
KE7DJD2026-09-01 18:39:1544.12814-115.97201249°20km/h29559m3.8m/s-45.7°C0.6%0hPa0V00:00:0000:00:0000:00:00
KE7DJD2026-09-01 18:38:5444.12884-115.97227177°20km/h29448m6.3m/s-46.6°C0.7%0hPa0V00:00:0000:00:0000:00:00
KE7DJD2026-09-01 18:38:3444.12979-115.97319182°27km/h29337m6.1m/s-46.5°C0.7%0hPa0V00:00:0000:00:0000:00:00
KE7DJD2026-09-01 18:38:1344.13050-115.97445213°9km/h29218m6.1m/s-47.1°C0.7%0hPa0V00:00:0000:00:0000:00:00
KE7DJD2026-09-01 18:37:5344.13050-115.97536123°24km/h29099m7.0m/s-47.2°C0.7%0hPa0V00:00:0000:00:0000:00:00
KE7DJD2026-09-01 18:37:3244.13061-115.9759721°9km/h28970m6.8m/s-48.0°C0.8%0hPa0V00:00:0000:00:0000:00:00
KE7DJD2026-09-01 18:37:1244.13052-115.97639276°9km/h28842m6.5m/s-48.7°C0.8%0hPa0V00:00:0000:00:0000:00:00
KE7DJD2026-09-01 18:36:5144.13034-115.9762158°9km/h28709m6.5m/s-47.6°C0.8%0hPa0V00:00:0000:00:0000:00:00
KE7DJD2026-09-01 18:36:3044.13022-115.9757889°4km/h28573m8.0m/s-47.3°C0.8%0hPa0V00:00:0000:00:0000:00:00
KE7DJD2026-09-01 18:36:1144.13014-115.97517337°24km/h28445m4.6m/s-46.7°C0.7%0hPa0V00:00:0000:00:0000:00:00
KE7DJD2026-09-01 18:35:5044.12988-115.97469331°15km/h28319m5.2m/s-46.3°C0.7%0hPa0V00:00:0000:00:0000:00:00
KE7DJD2026-09-01 18:35:2944.12935-115.97414332°15km/h28192m6.3m/s-46.6°C0.7%0hPa0V00:00:0000:00:0000:00:00
KE7DJD2026-09-01 18:35:0844.12909-115.97328349°11km/h28066m5.2m/s-46.9°C0.7%0hPa0V00:00:0000:00:0000:00:00
KE7DJD2026-09-01 18:34:4844.12929-115.97218214°16km/h27952m5.4m/s-47.8°C0.8%0hPa0V00:00:0000:00:0000:00:00
KE7DJD2026-09-01 18:34:2844.12968-115.97141192°20km/h27836m6.1m/s-48.1°C0.8%0hPa0V00:00:0000:00:0000:00:00
KE7DJD2026-09-01 18:34:0744.13022-115.97150198°20km/h27714m6.4m/s-48.4°C0.8%0hPa0V00:00:0000:00:0000:00:00
KE7DJD2026-09-01 18:33:4744.13055-115.9717375°9km/h27603m6.7m/s-48.8°C0.8%0hPa0V00:00:0000:00:0000:00:00
KE7DJD2026-09-01 18:33:2644.13074-115.97197174°16km/h27485m5.3m/s-48.0°C0.8%0hPa0V00:00:0000:00:0000:00:00
KE7DJD2026-09-01 18:33:0644.13103-115.97176128°22km/h27370m5.1m/s-47.7°C0.8%0hPa0V00:00:0000:00:0000:00:00
KE7DJD2026-09-01 18:32:4544.13137-115.97198143°24km/h27250m5.2m/s-48.7°C0.8%0hPa0V00:00:0000:00:0000:00:00
KE7DJD2026-09-01 18:32:2544.13140-115.97240140°11km/h27135m7.4m/s-49.8°C0.9%0hPa0V00:00:0000:00:0000:00:00
KE7DJD2026-09-01 18:32:0444.13156-115.97265282°5km/h27013m6.7m/s-50.5°C0.9%0hPa0V00:00:0000:00:0000:00:00
KE7DJD2026-09-01 18:31:4344.13148-115.97262259°5km/h26889m7.1m/s-50.8°C0.9%0hPa0V00:00:0000:00:0000:00:00
KE7DJD2026-09-01 18:31:2244.13142-115.97247116°7km/h26764m5.7m/s-49.7°C0.9%0hPa0V00:00:0000:00:0000:00:00
KE7DJD2026-09-01 18:31:0144.13139-115.97267132°2km/h26637m6.6m/s-49.1°C0.9%0hPa0V00:00:0000:00:0000:00:00
KE7DJD2026-09-01 18:30:4144.13119-115.972729km/h26515m5.6m/s-49.2°C0.9%0hPa0V00:00:0000:00:0000:00:00
KE7DJD2026-09-01 18:30:1944.13093-115.97292258°11km/h26393m6.8m/s-48.8°C0.9%0hPa0V00:00:0000:00:0000:00:00
KE7DJD2026-09-01 18:29:5844.13119-115.97253274°33km/h26272m5.6m/s-48.7°C0.8%0hPa0V00:00:0000:00:0000:00:00
KE7DJD2026-09-01 18:29:3744.13134-115.97185318°31km/h26160m5.2m/s-49.2°C0.9%0hPa0V00:00:0000:00:0000:00:00
KE7DJD2026-09-01 18:29:1744.13123-115.9719024°11km/h26050m4.0m/s-49.4°C0.9%0hPa0V00:00:0000:00:0000:00:00
KE7DJD2026-09-01 18:28:5744.13101-115.9719891°9km/h25938m3.8m/s-49.9°C0.9%0hPa0V00:00:0000:00:0000:00:00
KE7DJD2026-09-01 18:28:3644.13077-115.9716252°18km/h25819m6.0m/s-49.7°C0.9%0hPa0V00:00:0000:00:0000:00:00
KE7DJD2026-09-01 18:28:1544.13061-115.9711847°5km/h25700m6.6m/s-49.6°C0.9%0hPa0V00:00:0000:00:0000:00:00
KE7DJD2026-09-01 18:27:5544.13032-115.9714722°22km/h25583m5.2m/s-50.7°C1.0%0hPa0V00:00:0000:00:0000:00:00
KE7DJD2026-09-01 18:27:3444.12967-115.97139316°31km/h25461m4.9m/s-50.5°C1.0%0hPa0V00:00:0000:00:0000:00:00
KE7DJD2026-09-01 18:27:1344.12896-115.97050293°18km/h25337m4.7m/s-50.4°C1.0%0hPa0V00:00:0000:00:0000:00:00
KE7DJD2026-09-01 18:26:5344.12890-115.96982223°16km/h25221m6.5m/s-50.2°C0.9%0hPa0V00:00:0000:00:0000:00:00
KE7DJD2026-09-01 18:26:3244.12909-115.96938271°7km/h25100m7.1m/s-50.1°C1.0%0hPa0V00:00:0000:00:0000:00:00
KE7DJD2026-09-01 18:26:1144.12900-115.96940122°5km/h24988m6.1m/s-50.6°C1.0%0hPa0V00:00:0000:00:0000:00:00
KE7DJD2026-09-01 18:25:5144.12871-115.96943289°18km/h24875m5.8m/s-50.9°C1.0%0hPa0V00:00:0000:00:0000:00:00
KE7DJD2026-09-01 18:25:3044.12860-115.96918237°7km/h24761m4.2m/s-50.6°C1.0%0hPa0V00:00:0000:00:0000:00:00
KE7DJD2026-09-01 18:25:0944.12849-115.96927124°13km/h24642m6.8m/s-49.9°C1.0%0hPa0V00:00:0000:00:0000:00:00
KE7DJD2026-09-01 18:24:4844.12831-115.9701496°22km/h24523m4.5m/s-50.3°C1.0%0hPa0V00:00:0000:00:0000:00:00
KE7DJD2026-09-01 18:24:2744.12803-115.9708468°20km/h24407m5.3m/s-50.4°C1.0%0hPa0V00:00:0000:00:0000:00:00
KE7DJD2026-09-01 18:24:0744.12749-115.9713652°18km/h24293m4.5m/s-50.7°C1.0%0hPa0V00:00:0000:00:0000:00:00
KE7DJD2026-09-01 18:23:4744.12698-115.9718170°15km/h24180m5.1m/s-51.0°C1.0%0hPa0V00:00:0000:00:0000:00:00
KE7DJD2026-09-01 18:23:2644.12627-115.97218360°16km/h24063m6.2m/s-51.7°C1.0%0hPa0V00:00:0000:00:0000:00:00
KE7DJD2026-09-01 18:23:0744.12525-115.97175306°18km/h23949m6.0m/s-52.1°C1.1%0hPa0V00:00:0000:00:0000:00:00
KE7DJD2026-09-01 18:22:4644.12473-115.9718813°5km/h23834m6.2m/s-52.4°C1.1%0hPa0V00:00:0000:00:0000:00:00
KE7DJD2026-09-01 18:22:2544.12428-115.9725944°20km/h23717m6.0m/s-52.4°C1.1%0hPa0V00:00:0000:00:0000:00:00
KE7DJD2026-09-01 18:22:0444.12359-115.9733644°33km/h23606m6.7m/s-52.2°C1.1%0hPa0V00:00:0000:00:0000:00:00
KE7DJD2026-09-01 18:21:4344.12287-115.9744970°27km/h23493m5.7m/s-51.8°C1.1%0hPa0V00:00:0000:00:0000:00:00
KE7DJD2026-09-01 18:21:2344.12206-115.9756853°31km/h23381m6.3m/s-51.7°C1.0%0hPa0V00:00:0000:00:0000:00:00
KE7DJD2026-09-01 18:21:0244.12096-115.9767413°24km/h23262m6.1m/s-52.3°C1.2%0hPa0V00:00:0000:00:0000:00:00
KE7DJD2026-09-01 18:20:4144.11964-115.97733360°24km/h23147m6.0m/s-52.4°C1.2%0hPa0V00:00:0000:00:0000:00:00
KE7DJD2026-09-01 18:20:2044.11821-115.97740357°31km/h23036m6.2m/s-51.8°C1.1%0hPa0V00:00:0000:00:0000:00:00
KE7DJD2026-09-01 18:19:5944.11723-115.97672305°15km/h22926m5.4m/s-52.1°C1.1%0hPa0V00:00:0000:00:0000:00:00
KE7DJD2026-09-01 18:19:3944.11695-115.97565233°18km/h22820m5.2m/s-52.6°C1.1%0hPa0V00:00:0000:00:0000:00:00
KE7DJD2026-09-01 18:19:1844.11732-115.97495201°11km/h22711m5.8m/s-53.1°C1.1%0hPa0V00:00:0000:00:0000:00:00
KE7DJD2026-09-01 18:18:5744.11785-115.9754491°9km/h22607m4.5m/s-54.0°C1.3%0hPa0V00:00:0000:00:0000:00:00
KE7DJD2026-09-01 18:18:3644.11798-115.97634151°5km/h22498m4.1m/s-53.4°C1.2%0hPa0V00:00:0000:00:0000:00:00
KE7DJD2026-09-01 18:18:1544.11755-115.9771560°16km/h22386m5.6m/s-53.3°C1.2%0hPa0V00:00:0000:00:0000:00:00
KE7DJD2026-09-01 18:17:5544.11661-115.9780347°27km/h22276m4.1m/s-54.0°C1.3%0hPa0V00:00:0000:00:0000:00:00
KE7DJD2026-09-01 18:17:3444.11534-115.9784616°18km/h22160m6.1m/s-53.1°C1.2%0hPa0V00:00:0000:00:0000:00:00
KE7DJD2026-09-01 18:17:1544.11408-115.9785814°9km/h22046m5.3m/s-52.4°C1.2%0hPa0V00:00:0000:00:0000:00:00
KE7DJD2026-09-01 18:16:5344.11321-115.97877305°18km/h21934m4.3m/s-51.7°C1.2%0hPa0V00:00:0000:00:0000:00:00
KE7DJD2026-09-01 18:16:3244.11255-115.97872333°20km/h21821m6.0m/s-51.3°C1.1%0hPa0V00:00:0000:00:0000:00:00
KE7DJD2026-09-01 18:16:1144.11184-115.9786113°18km/h21705m5.5m/s-52.0°C1.2%0hPa0V00:00:0000:00:0000:00:00
KE7DJD2026-09-01 18:15:5244.11138-115.9786022°9km/h21599m4.2m/s-52.0°C1.1%0hPa0V00:00:0000:00:0000:00:00
KE7DJD2026-09-01 18:15:3144.11138-115.97842166°5km/h21494m5.7m/s-52.2°C1.2%0hPa0V00:00:0000:00:0000:00:00
KE7DJD2026-09-01 18:15:1144.11104-115.97836122°9km/h21381m5.8m/s-51.9°C1.2%0hPa0V00:00:0000:00:0000:00:00
KE7DJD2026-09-01 18:14:5044.11073-115.9786494°18km/h21281m6.6m/s-52.6°C1.1%0hPa0V00:00:0000:00:0000:00:00
KE7DJD2026-09-01 18:14:2944.11053-115.9795770°20km/h21176m5.5m/s-53.3°C1.3%0hPa0V00:00:0000:00:0000:00:00
KE7DJD2026-09-01 18:14:0944.10990-115.9805237°24km/h21072m4.3m/s-53.1°C1.2%0hPa0V00:00:0000:00:0000:00:00
KE7DJD2026-09-01 18:13:4844.10910-115.98078334°13km/h20963m5.1m/s-53.7°C1.3%0hPa0V00:00:0000:00:0000:00:00
KE7DJD2026-09-01 18:13:2744.10875-115.9808918°9km/h20857m5.3m/s-53.9°C1.3%0hPa0V00:00:0000:00:0000:00:00
KE7DJD2026-09-01 18:13:0644.10869-115.9814496°4km/h20751m4.2m/s-53.8°C1.3%0hPa0V00:00:0000:00:0000:00:00
KE7DJD2026-09-01 18:12:4544.10870-115.98236111°29km/h20647m4.5m/s-53.9°C1.3%0hPa0V00:00:0000:00:0000:00:00
KE7DJD2026-09-01 18:12:2444.10857-115.9833292°11km/h20542m6.0m/s-54.3°C1.4%0hPa0V00:00:0000:00:0000:00:00
KE7DJD2026-09-01 18:12:0444.10790-115.98392357°27km/h20438m3.7m/s-54.0°C1.3%0hPa0V00:00:0000:00:0000:00:00
KE7DJD2026-09-01 18:11:4344.10654-115.98443355°37km/h20328m6.3m/s-54.9°C1.4%0hPa0V00:00:0000:00:0000:00:00
KE7DJD2026-09-01 18:11:2344.10506-115.98438352°35km/h20222m5.8m/s-55.1°C1.4%0hPa0V00:00:0000:00:0000:00:00
KE7DJD2026-09-01 18:11:0244.10357-115.98393352°38km/h20113m5.4m/s-54.8°C1.4%0hPa0V00:00:0000:00:0000:00:00
KE7DJD2026-09-01 18:10:4244.10247-115.9837424km/h20014m6.4m/s-54.2°C1.3%0hPa0V00:00:0000:00:0000:00:00
KE7DJD2026-09-01 18:10:2144.10166-115.9842128°18km/h19908m4.4m/s-54.3°C1.4%0hPa0V00:00:0000:00:0000:00:00
KE7DJD2026-09-01 18:10:0044.10095-115.9849574°5km/h19801m6.7m/s-53.9°C1.3%0hPa0V00:00:0000:00:0000:00:00
KE7DJD2026-09-01 18:09:4044.10031-115.9863387°22km/h19700m5.3m/s-53.4°C1.3%0hPa0V00:00:0000:00:0000:00:00
KE7DJD2026-09-01 18:09:2044.09962-115.9883775°33km/h19604m4.2m/s-53.5°C1.3%0hPa0V00:00:0000:00:0000:00:00
KE7DJD2026-09-01 18:08:5944.09856-115.9903930°38km/h19502m5.1m/s-53.8°C1.3%0hPa0V00:00:0000:00:0000:00:00
KE7DJD2026-09-01 18:08:3944.09688-115.9921412°44km/h19404m3.9m/s-54.8°C1.4%0hPa0V00:00:0000:00:0000:00:00
KE7DJD2026-09-01 18:08:1944.09527-115.9931718°40km/h19305m5.2m/s-55.3°C1.4%0hPa0V00:00:0000:00:0000:00:00
KE7DJD2026-09-01 18:07:5844.09403-115.99343346°31km/h19201m4.0m/s-54.7°C1.3%0hPa0V00:00:0000:00:0000:00:00
KE7DJD2026-09-01 18:07:3744.09299-115.9937431°22km/h19103m5.2m/s-55.4°C1.4%0hPa0V00:00:0000:00:0000:00:00
KE7DJD2026-09-01 18:07:1644.09184-115.9946416km/h19007m3.8m/s-56.1°C1.5%0hPa0V00:00:0000:00:0000:00:00
KE7DJD2026-09-01 18:06:5744.09031-115.9952128°37km/h18916m4.3m/s-56.2°C1.5%0hPa0V00:00:0000:00:0000:00:00
KE7DJD2026-09-01 18:06:3544.08860-115.9953233km/h18817m5.1m/s-56.5°C1.5%0hPa0V00:00:0000:00:0000:00:00
KE7DJD2026-09-01 18:06:1444.08711-115.9958629°33km/h18716m4.5m/s-56.5°C1.5%0hPa0V00:00:0000:00:0000:00:00
KE7DJD2026-09-01 18:05:5344.08582-115.9963918km/h18613m5.4m/s-55.6°C1.5%0hPa0V00:00:0000:00:0000:00:00
KE7DJD2026-09-01 18:05:3244.08487-115.9967939°27km/h18509m4.1m/s-55.5°C1.5%0hPa0V00:00:0000:00:0000:00:00
KE7DJD2026-09-01 18:05:1244.08392-115.9976054°26km/h18411m5.4m/s-55.5°C1.5%0hPa0V00:00:0000:00:0000:00:00
KE7DJD2026-09-01 18:04:5244.08281-115.9991162°38km/h18311m3.3m/s-55.7°C1.5%0hPa0V00:00:0000:00:0000:00:00
KE7DJD2026-09-01 18:04:3144.08110-116.0009135°53km/h18211m4.0m/s-56.0°C1.6%0hPa0V00:00:0000:00:0000:00:00
KE7DJD2026-09-01 18:04:1144.07933-116.0025840°47km/h18114m4.9m/s-56.4°C1.5%0hPa0V00:00:0000:00:0000:00:00
KE7DJD2026-09-01 18:03:5144.07776-116.0042742°33km/h18019m5.0m/s-56.4°C1.6%0hPa0V00:00:0000:00:0000:00:00
KE7DJD2026-09-01 18:03:3044.07624-116.0057332°44km/h17922m4.1m/s-56.1°C1.6%0hPa0V00:00:0000:00:0000:00:00
KE7DJD2026-09-01 18:03:1044.07484-116.0071842°33km/h17830m5.6m/s-55.9°C1.6%0hPa0V00:00:0000:00:0000:00:00
KE7DJD2026-09-01 18:02:4944.07384-116.0089653°40km/h17730m3.5m/s-55.6°C1.5%0hPa0V00:00:0000:00:0000:00:00
KE7DJD2026-09-01 18:02:2944.07271-116.0103544°31km/h17634m4.8m/s-55.9°C1.7%0hPa0V00:00:0000:00:0000:00:00
KE7DJD2026-09-01 18:02:0844.07107-116.0116731°47km/h17539m5.9m/s-56.4°C1.6%0hPa0V00:00:0000:00:0000:00:00
KE7DJD2026-09-01 18:01:4844.06888-116.0127720°47km/h17447m5.1m/s-56.1°C1.6%0hPa0V00:00:0000:00:0000:00:00
KE7DJD2026-09-01 18:01:2844.06655-116.0141319°53km/h17352m4.0m/s-56.4°C1.7%0hPa0V00:00:0000:00:0000:00:00
KE7DJD2026-09-01 18:01:0644.06421-116.0149418°47km/h17257m5.3m/s-55.9°C1.6%0hPa0V00:00:0000:00:0000:00:00
KE7DJD2026-09-01 18:00:4644.06211-116.01559356°44km/h17169m3.6m/s-55.6°C1.7%0hPa0V00:00:0000:00:0000:00:00
KE7DJD2026-09-01 18:00:2644.06021-116.0159142km/h17080m5.2m/s-55.0°C1.7%0hPa0V00:00:0000:00:0000:00:00
KE7DJD2026-09-01 18:00:0544.05814-116.0162712°64km/h16970m5.8m/s-54.4°C1.6%0hPa0V00:00:0000:00:0000:00:00
KE7DJD2026-09-01 17:59:4544.05605-116.0172331°53km/h16866m5.6m/s-54.0°C1.6%0hPa0V00:00:0000:00:0000:00:00
KE7DJD2026-09-01 17:59:2444.05387-116.0191539°51km/h16767m6.2m/s-53.9°C1.6%0hPa0V00:00:0000:00:0000:00:00
KE7DJD2026-09-01 17:59:0344.05188-116.0214240°58km/h16667m5.3m/s-53.4°C1.6%0hPa0V00:00:0000:00:0000:00:00
KE7DJD2026-09-01 17:58:4344.04951-116.0242547°62km/h16578m3.6m/s-54.1°C1.6%0hPa0V00:00:0000:00:0000:00:00
KE7DJD2026-09-01 17:58:2244.04645-116.0267529°58km/h16484m5.8m/s-55.1°C1.8%0hPa0V00:00:0000:00:0000:00:00
KE7DJD2026-09-01 17:58:0144.04340-116.0292938°73km/h16388m5.7m/s-55.7°C1.9%0hPa0V00:00:0000:00:0000:00:00
KE7DJD2026-09-01 17:57:4044.04068-116.0327745°68km/h16290m3.8m/s-55.6°C1.8%0hPa0V00:00:0000:00:0000:00:00
KE7DJD2026-09-01 17:57:1944.03784-116.0360341°80km/h16195m3.9m/s-55.6°C1.9%0hPa0V00:00:0000:00:0000:00:00
KE7DJD2026-09-01 17:56:5944.03484-116.0389739°73km/h16100m5.2m/s-55.4°C1.9%0hPa0V00:00:0000:00:0000:00:00
KE7DJD2026-09-01 17:56:3944.03209-116.0421035°69km/h16004m4.1m/s-55.1°C1.8%0hPa0V00:00:0000:00:0000:00:00
KE7DJD2026-09-01 17:56:1744.02911-116.0451433°69km/h15904m5.4m/s-55.2°C1.9%0hPa0V00:00:0000:00:0000:00:00
KE7DJD2026-09-01 17:55:5644.02632-116.0482748°68km/h15801m4.8m/s-54.7°C1.9%0hPa0V00:00:0000:00:0000:00:00
KE7DJD2026-09-01 17:55:3544.02370-116.0517840°78km/h15700m4.0m/s-54.9°C1.9%0hPa0V00:00:0000:00:0000:00:00
KE7DJD2026-09-01 17:55:1544.02093-116.0556250°80km/h15607m5.3m/s-54.8°C2.0%0hPa0V00:00:0000:00:0000:00:00
KE7DJD2026-09-01 17:54:5544.01799-116.0597949°80km/h15503m5.0m/s-54.5°C2.0%0hPa0V00:00:0000:00:0000:00:00
KE7DJD2026-09-01 17:54:1444.01174-116.0673334°84km/h15306m4.6m/s-54.0°C1.9%0hPa0V00:00:0000:00:0000:00:00
KE7DJD2026-09-01 17:53:5344.00850-116.0708235°88km/h15207m5.6m/s-54.3°C2.0%0hPa0V00:00:0000:00:0000:00:00
KE7DJD2026-09-01 17:53:3344.00521-116.0736927°69km/h15113m5.0m/s-54.5°C2.0%0hPa0V00:00:0000:00:0000:00:00
KE7DJD2026-09-01 17:53:1244.00199-116.0763227°68km/h15018m3.2m/s-54.1°C2.0%0hPa0V00:00:0000:00:0000:00:00
KE7DJD2026-09-01 17:52:5243.99887-116.0791435°75km/h14931m4.0m/s-54.1°C2.1%0hPa0V00:00:0000:00:0000:00:00
KE7DJD2026-09-01 17:52:3143.99562-116.0821437°82km/h14839m4.2m/s-53.6°C2.0%0hPa0V00:00:0000:00:0000:00:00
KE7DJD2026-09-01 17:52:1143.99223-116.0853933°84km/h14750m5.1m/s-54.0°C2.0%0hPa0V00:00:0000:00:0000:00:00
KE7DJD2026-09-01 17:51:5043.98883-116.0885934°73km/h14658m5.9m/s-53.3°C2.1%0hPa0V00:00:0000:00:0000:00:00
KE7DJD2026-09-01 17:51:2943.98582-116.0915136°64km/h14568m5.1m/s-52.8°C1.9%0hPa0V00:00:0000:00:0000:00:00
KE7DJD2026-09-01 17:51:0843.98321-116.0941142°44km/h14476m4.3m/s-52.5°C1.9%0hPa0V00:00:0000:00:0000:00:00
KE7DJD2026-09-01 17:50:4743.98064-116.0969338°60km/h14373m3.5m/s-52.4°C1.9%0hPa0V00:00:0000:00:0000:00:00
KE7DJD2026-09-01 17:50:2643.97717-116.1003034°80km/h14291m4.7m/s-52.6°C2.0%0hPa0V00:00:0000:00:0000:00:00
KE7DJD2026-09-01 17:50:0543.97351-116.1034233°89km/h14213m3.3m/s-52.7°C2.2%0hPa0V00:00:0000:00:0000:00:00
KE7DJD2026-09-01 17:49:4443.96968-116.1065737°82km/h14130m4.1m/s-52.6°C2.2%0hPa0V00:00:0000:00:0000:00:00
KE7DJD2026-09-01 17:49:2343.96613-116.1096438°71km/h14049m4.6m/s-52.9°C2.1%0hPa0V00:00:0000:00:0000:00:00
KE7DJD2026-09-01 17:49:0343.96286-116.1127539°86km/h13967m4.2m/s-52.8°C2.2%0hPa0V00:00:0000:00:0000:00:00
KE7DJD2026-09-01 17:48:4343.95935-116.1160236°89km/h13885m4.1m/s-53.3°C2.2%0hPa0V00:00:0000:00:0000:00:00
KE7DJD2026-09-01 17:48:2243.95573-116.1194737°93km/h13795m4.0m/s-54.0°C2.4%0hPa0V00:00:0000:00:0000:00:00
KE7DJD2026-09-01 17:48:0143.95205-116.1233037°95km/h13700m3.3m/s-53.7°C2.5%0hPa0V00:00:0000:00:0000:00:00
KE7DJD2026-09-01 17:47:4043.94823-116.1273542°93km/h13600m4.7m/s-53.7°C2.6%0hPa0V00:00:0000:00:0000:00:00
KE7DJD2026-09-01 17:47:1943.94414-116.1317438°99km/h13498m5.4m/s-53.4°C2.5%0hPa0V00:00:0000:00:0000:00:00
KE7DJD2026-09-01 17:46:5843.94009-116.1357839°93km/h13398m4.1m/s-53.2°C2.7%0hPa0V00:00:0000:00:0000:00:00
KE7DJD2026-09-01 17:46:3843.93630-116.1392329°88km/h13303m4.8m/s-52.8°C2.8%0hPa0V00:00:0000:00:0000:00:00
KE7DJD2026-09-01 17:46:1743.93228-116.1423526°89km/h13201m3.7m/s-52.2°C2.9%0hPa0V00:00:0000:00:0000:00:00
KE7DJD2026-09-01 17:45:5643.92817-116.1451924°86km/h13107m4.3m/s-53.1°C3.6%0hPa0V00:00:0000:00:0000:00:00
KE7DJD2026-09-01 17:45:3543.92395-116.1479024°84km/h13014m5.9m/s-54.3°C5.1%0hPa0V00:00:0000:00:0000:00:00
KE7DJD2026-09-01 17:45:1643.91993-116.1497111°78km/h12921m5.0m/s-54.0°C5.7%0hPa0V00:00:0000:00:0000:00:00
KE7DJD2026-09-01 17:44:5443.91579-116.1507984km/h12836m4.2m/s-55.3°C7.8%0hPa0V00:00:0000:00:0000:00:00
KE7DJD2026-09-01 17:44:3443.91235-116.1515466km/h12752m4.4m/s-55.5°C8.2%0hPa0V00:00:0000:00:0000:00:00
KE7DJD2026-09-01 17:44:1443.90938-116.1520913°60km/h12666m5.4m/s-55.1°C7.8%0hPa0V00:00:0000:00:0000:00:00
KE7DJD2026-09-01 17:43:5343.90645-116.1530214°57km/h12578m4.0m/s-54.8°C8.1%0hPa0V00:00:0000:00:0000:00:00
KE7DJD2026-09-01 17:43:3243.90348-116.1544020°58km/h12490m3.7m/s-54.5°C8.4%0hPa0V00:00:0000:00:0000:00:00
KE7DJD2026-09-01 17:43:1143.90041-116.1561031°64km/h12401m4.3m/s-54.8°C9.8%0hPa0V00:00:0000:00:0000:00:00
KE7DJD2026-09-01 17:42:5043.89738-116.1585134°69km/h12315m5.3m/s-54.8°C11.8%0hPa0V00:00:0000:00:0000:00:00
KE7DJD2026-09-01 17:42:3043.89414-116.1612431°82km/h12235m3.3m/s-54.8°C13.9%0hPa0V00:00:0000:00:0000:00:00
KE7DJD2026-09-01 17:42:0943.89054-116.1644135°88km/h12148m4.6m/s-55.3°C17.1%0hPa0V00:00:0000:00:0000:00:00
KE7DJD2026-09-01 17:41:4843.88667-116.1678833°86km/h12059m4.0m/s-55.0°C20.1%0hPa0V00:00:0000:00:0000:00:00
KE7DJD2026-09-01 17:41:2843.88237-116.1712225°102km/h11969m3.2m/s-55.7°C25.8%0hPa0V00:00:0000:00:0000:00:00
KE7DJD2026-09-01 17:41:0643.87799-116.1741226°82km/h11882m4.1m/s-55.7°C30.2%0hPa0V00:00:0000:00:0000:00:00
KE7DJD2026-09-01 17:40:4643.87437-116.1763425°80km/h11802m5.0m/s-55.8°C33.8%0hPa0V00:00:0000:00:0000:00:00
KE7DJD2026-09-01 17:40:2643.87052-116.1785828°82km/h11721m3.5m/s-56.0°C38.3%0hPa0V00:00:0000:00:0000:00:00
KE7DJD2026-09-01 17:40:0543.86637-116.1807124°84km/h11638m3.3m/s-56.4°C46.4%0hPa0V00:00:0000:00:0000:00:00
KE7DJD2026-09-01 17:39:4443.86180-116.1832020°95km/h11557m5.7m/s-56.2°C54.3%0hPa0V00:00:0000:00:0000:00:00
KE7DJD2026-09-01 17:39:2343.85745-116.1851115°80km/h11468m3.5m/s-56.9°C53.9%0hPa0V00:00:0000:00:0000:00:00
KE7DJD2026-09-01 17:39:0243.85292-116.1867017°84km/h11385m5.2m/s-56.2°C56.0%0hPa0V00:00:0000:00:0000:00:00
KE7DJD2026-09-01 17:38:4243.84847-116.1881811°91km/h11299m4.4m/s-55.5°C62.4%0hPa0V00:00:0000:00:0000:00:00
KE7DJD2026-09-01 17:38:2143.84362-116.1896414°95km/h11204m6.8m/s-54.9°C75.9%0hPa0V00:00:0000:00:0000:00:00
KE7DJD2026-09-01 17:38:0143.83887-116.1909586km/h11104m4.5m/s-54.0°C73.3%0hPa0V00:00:0000:00:0000:00:00
KE7DJD2026-09-01 17:37:4043.83438-116.1922514°89km/h11008m5.4m/s-53.0°C72.2%0hPa0V00:00:0000:00:0000:00:00
KE7DJD2026-09-01 17:37:1943.82979-116.1936911°86km/h10908m5.4m/s-52.3°C64.3%0hPa0V00:00:0000:00:0000:00:00
KE7DJD2026-09-01 17:36:5943.82568-116.1949218°80km/h10819m4.3m/s-51.4°C63.6%0hPa0V00:00:0000:00:0000:00:00
KE7DJD2026-09-01 17:36:3943.82164-116.1963016°82km/h10731m3.8m/s-50.5°C63.6%0hPa0V00:00:0000:00:0000:00:00
KE7DJD2026-09-01 17:36:1843.81745-116.1979620°80km/h10637m3.9m/s-49.7°C66.6%0hPa0V00:00:0000:00:0000:00:00
KE7DJD2026-09-01 17:35:5843.81330-116.1996214°80km/h10537m4.9m/s-48.9°C68.0%0hPa0V00:00:0000:00:0000:00:00
KE7DJD2026-09-01 17:35:3643.80938-116.2013521°78km/h10440m4.8m/s-47.9°C68.2%0hPa0V00:00:0000:00:0000:00:00
KE7DJD2026-09-01 17:35:1643.80562-116.2030618°77km/h10349m5.6m/s-47.1°C66.7%0hPa0V00:00:0000:00:0000:00:00
KE7DJD2026-09-01 17:34:3543.79845-116.2065319°66km/h10161m3.5m/s-45.6°C66.3%0hPa0V00:00:0000:00:0000:00:00
KE7DJD2026-09-01 17:34:1543.79527-116.2083025°78km/h10064m4.0m/s-44.6°C61.7%0hPa0V00:00:0000:00:0000:00:00
KE7DJD2026-09-01 17:33:5543.79207-116.2100726°64km/h9965m4.6m/s-43.7°C63.0%0hPa0V00:00:0000:00:0000:00:00
KE7DJD2026-09-01 17:33:3443.78906-116.2118427°69km/h9873m5.5m/s-43.0°C61.6%0hPa0V00:00:0000:00:0000:00:00
KE7DJD2026-09-01 17:33:1343.78606-116.2139325°64km/h9780m5.3m/s-42.4°C64.9%0hPa0V00:00:0000:00:0000:00:00
KE7DJD2026-09-01 17:32:5343.78320-116.2157531°62km/h9691m4.1m/s-41.6°C67.6%0hPa0V00:00:0000:00:0000:00:00
KE7DJD2026-09-01 17:32:3243.78014-116.2176926°58km/h9599m4.1m/s-40.9°C69.5%0hPa0V00:00:0000:00:0000:00:00
KE7DJD2026-09-01 17:32:1243.77723-116.2194626°62km/h9511m4.1m/s-40.1°C72.2%0hPa0V00:00:0000:00:0000:00:00
KE7DJD2026-09-01 17:31:5243.77435-116.2211928°62km/h9422m3.6m/s-39.3°C72.9%0hPa0V00:00:0000:00:0000:00:00
KE7DJD2026-09-01 17:31:3143.77140-116.2229822°60km/h9328m3.8m/s-38.5°C71.0%0hPa0V00:00:0000:00:0000:00:00
KE7DJD2026-09-01 17:31:1043.76852-116.2246124°62km/h9237m5.3m/s-37.7°C71.7%0hPa0V00:00:0000:00:0000:00:00
KE7DJD2026-09-01 17:30:4943.76556-116.2262424°64km/h9146m3.5m/s-37.0°C71.9%0hPa0V00:00:0000:00:0000:00:00
KE7DJD2026-09-01 17:30:2943.76275-116.2277626°53km/h9059m3.6m/s-36.2°C71.9%0hPa0V00:00:0000:00:0000:00:00
KE7DJD2026-09-01 17:30:0943.75999-116.2292328°49km/h8971m3.9m/s-35.5°C71.8%0hPa0V00:00:0000:00:0000:00:00
KE7DJD2026-09-01 17:29:2843.75442-116.2322327°53km/h8785m4.5m/s-34.0°C72.7%0hPa0V00:00:0000:00:0000:00:00
KE7DJD2026-09-01 17:29:0743.75171-116.2335420°49km/h8694m3.4m/s-33.5°C76.0%0hPa0V00:00:0000:00:0000:00:00
KE7DJD2026-09-01 17:28:4743.74911-116.2347225°49km/h8608m5.0m/s-32.8°C76.8%0hPa0V00:00:0000:00:0000:00:00
KE7DJD2026-09-01 17:28:2643.74656-116.2358821°49km/h8520m4.2m/s-32.0°C75.0%0hPa0V00:00:0000:00:0000:00:00
KE7DJD2026-09-01 17:27:4543.74153-116.2379919°51km/h8351m4.1m/s-30.7°C72.5%0hPa0V00:00:0000:00:0000:00:00
KE7DJD2026-09-01 17:27:2443.73869-116.2388921°68km/h8254m7.5m/s-30.2°C77.0%0hPa0V00:00:0000:00:0000:00:00
KE7DJD2026-09-01 17:27:0443.73561-116.2400630°57km/h8157m4.1m/s-29.4°C74.8%0hPa0V00:00:0000:00:0000:00:00
KE7DJD2026-09-01 17:26:4343.73271-116.2411712°58km/h8067m4.6m/s-28.8°C73.0%0hPa0V00:00:0000:00:0000:00:00
KE7DJD2026-09-01 17:26:2343.72975-116.2419521°66km/h7989m4.4m/s-29.1°C59.1%0hPa0V00:00:0000:00:0000:00:00
KE7DJD2026-09-01 17:26:0243.72642-116.2431813°69km/h7896m4.8m/s-28.2°C52.7%0hPa0V00:00:0000:00:0000:00:00
KE7DJD2026-09-01 17:25:4143.72317-116.2441913°71km/h7807m4.0m/s-27.5°C56.2%0hPa0V00:00:0000:00:0000:00:00
KE7DJD2026-09-01 17:25:2143.71998-116.2449015°66km/h7735m4.2m/s-26.9°C62.4%0hPa0V00:00:0000:00:0000:00:00
KE7DJD2026-09-01 17:25:0043.71653-116.2457718°57km/h7654m3.7m/s-26.2°C72.8%0hPa0V00:00:0000:00:0000:00:00
KE7DJD2026-09-01 17:24:3943.71312-116.2462953km/h7550m5.7m/s-25.3°C58.1%0hPa0V00:00:0000:00:0000:00:00
KE7DJD2026-09-01 17:24:1843.71007-116.2467858km/h7466m3.4m/s-24.5°C54.7%0hPa0V00:00:0000:00:0000:00:00
KE7DJD2026-09-01 17:23:5743.70699-116.2473155km/h7381m4.6m/s-23.7°C50.2%0hPa0V00:00:0000:00:0000:00:00
KE7DJD2026-09-01 17:23:3643.70396-116.2476862km/h7292m5.0m/s-23.0°C56.0%0hPa0V00:00:0000:00:0000:00:00
KE7DJD2026-09-01 17:23:1643.70103-116.2480815°58km/h7211m4.5m/s-22.3°C56.1%0hPa0V00:00:0000:00:0000:00:00
KE7DJD2026-09-01 17:22:5543.69795-116.24870356°66km/h7104m4.6m/s-21.4°C64.1%0hPa0V00:00:0000:00:0000:00:00
KE7DJD2026-09-01 17:22:3443.69451-116.2493368km/h6987m4.8m/s-20.5°C64.3%0hPa0V00:00:0000:00:0000:00:00
KE7DJD2026-09-01 17:22:1443.69119-116.2497971km/h6901m4.6m/s-20.4°C93.8%0hPa0V00:00:0000:00:0000:00:00
KE7DJD2026-09-01 17:21:5443.68799-116.2501973km/h6808m6.1m/s-20.0°C95.9%0hPa0V00:00:0000:00:0000:00:00
KE7DJD2026-09-01 17:21:3343.68460-116.2506413°44km/h6693m5.5m/s-18.9°C92.1%0hPa0V00:00:0000:00:0000:00:00
KE7DJD2026-09-01 17:21:1343.68183-116.2510121°62km/h6571m7.5m/s-17.9°C79.4%0hPa0V00:00:0000:00:0000:00:00
KE7DJD2026-09-01 17:20:5243.67885-116.2516960km/h6457m7.7m/s-16.8°C74.9%0hPa0V00:00:0000:00:0000:00:00
KE7DJD2026-09-01 17:20:3143.67599-116.2524146km/h6347m5.9m/s-16.0°C75.0%0hPa0V00:00:0000:00:0000:00:00
KE7DJD2026-09-01 17:20:1143.67328-116.2530816°53km/h6237m5.4m/s-15.1°C72.1%0hPa0V00:00:0000:00:0000:00:00
KE7DJD2026-09-01 17:19:5143.67059-116.2533055km/h6145m5.1m/s-14.5°C76.7%0hPa0V00:00:0000:00:0000:00:00
KE7DJD2026-09-01 17:19:3143.66794-116.25339359°47km/h6056m5.0m/s-14.0°C85.0%0hPa0V00:00:0000:00:0000:00:00
KE7DJD2026-09-01 17:18:5143.66257-116.2531755km/h5847m4.5m/s-12.5°C86.9%0hPa0V00:00:0000:00:0000:00:00
KE7DJD2026-09-01 17:18:3043.65972-116.25219357°68km/h5722m6.1m/s-11.5°C86.2%0hPa0V00:00:0000:00:0000:00:00
KE7DJD2026-09-01 17:18:1043.65712-116.25086336°49km/h5592m4.6m/s-10.5°C81.9%0hPa0V00:00:0000:00:0000:00:00
KE7DJD2026-09-01 17:17:4943.65435-116.24985343°57km/h5498m6.1m/s-9.8°C79.8%0hPa0V00:00:0000:00:0000:00:00
KE7DJD2026-09-01 17:17:2843.65175-116.24855333°51km/h5399m5.6m/s-9.0°C78.5%0hPa0V00:00:0000:00:0000:00:00
KE7DJD2026-09-01 17:17:0843.64931-116.24717333°49km/h5302m4.1m/s-8.2°C77.6%0hPa0V00:00:0000:00:0000:00:00
KE7DJD2026-09-01 17:16:4843.64677-116.24572335°69km/h5217m4.1m/s-7.6°C78.2%0hPa0V00:00:0000:00:0000:00:00
KE7DJD2026-09-01 17:16:2743.64389-116.24434347°55km/h5111m4.0m/s-7.0°C79.5%0hPa0V00:00:0000:00:0000:00:00
KE7DJD2026-09-01 17:16:0743.64055-116.24301342°82km/h5018m6.0m/s-6.5°C79.6%0hPa0V00:00:0000:00:0000:00:00
KE7DJD2026-09-01 17:15:4543.63706-116.24145344°73km/h4912m4.7m/s-5.7°C77.5%0hPa0V00:00:0000:00:0000:00:00
KE7DJD2026-09-01 17:15:2443.63360-116.24006344°75km/h4816m3.1m/s-4.9°C78.7%0hPa0V00:00:0000:00:0000:00:00
KE7DJD2026-09-01 17:15:0343.62994-116.23842345°69km/h4731m4.2m/s-4.1°C76.1%0hPa0V00:00:0000:00:0000:00:00
KE7DJD2026-09-01 17:14:4243.62619-116.23679343°69km/h4630m4.0m/s-3.2°C75.6%0hPa0V00:00:0000:00:0000:00:00
KE7DJD2026-09-01 17:14:2143.62247-116.23524344°71km/h4545m5.0m/s-2.7°C77.5%0hPa0V00:00:0000:00:0000:00:00
KE7DJD2026-09-01 17:14:0043.61885-116.23351338°80km/h4431m5.8m/s-1.9°C77.6%0hPa0V00:00:0000:00:0000:00:00
KE7DJD2026-09-01 17:13:4043.61558-116.23236346°62km/h4331m4.6m/s-1.2°C76.2%0hPa0V00:00:0000:00:0000:00:00
KE7DJD2026-09-01 17:13:2043.61284-116.23128351°51km/h4232m5.6m/s-0.5°C75.8%0hPa0V00:00:0000:00:0000:00:00
KE7DJD2026-09-01 17:12:5943.61005-116.23051348°55km/h4122m3.7m/s0.1°C75.4%0hPa0V00:00:0000:00:0000:00:00
KE7DJD2026-09-01 17:12:3943.60743-116.22943332°55km/h4032m4.4m/s0.7°C73.5%0hPa0V00:00:0000:00:0000:00:00
KE7DJD2026-09-01 17:12:1843.60503-116.22872337°40km/h3916m5.4m/s1.5°C69.8%0hPa0V00:00:0000:00:0000:00:00
KE7DJD2026-09-01 17:11:5743.60306-116.22809336°37km/h3802m4.8m/s1.9°C66.4%0hPa0V00:00:0000:00:0000:00:00
KE7DJD2026-09-01 17:11:3743.60141-116.22799334°37km/h3699m6.4m/s2.5°C64.2%0hPa0V00:00:0000:00:0000:00:00
KE7DJD2026-09-01 17:11:1643.59974-116.2284317°46km/h3584m5.9m/s3.5°C63.9%0hPa0V00:00:0000:00:0000:00:00
KE7DJD2026-09-01 17:10:5643.59812-116.2291034°35km/h3466m5.6m/s4.2°C59.3%0hPa0V00:00:0000:00:0000:00:00
KE7DJD2026-09-01 17:10:3543.59648-116.2291816°15km/h3345m6.0m/s4.8°C62.6%0hPa0V00:00:0000:00:0000:00:00
KE7DJD2026-09-01 17:10:1443.59525-116.22814316°24km/h3236m7.0m/s5.5°C62.3%0hPa0V00:00:0000:00:0000:00:00
KE7DJD2026-09-01 17:09:5343.59385-116.22756322°27km/h3132m3.7m/s6.5°C59.6%0hPa0V00:00:0000:00:0000:00:00
KE7DJD2026-09-01 17:09:3243.59246-116.2265820km/h3034m4.5m/s7.4°C56.9%0hPa0V00:00:0000:00:0000:00:00
KE7DJD2026-09-01 17:09:1143.59121-116.2265921°27km/h2932m3.6m/s8.1°C56.4%0hPa0V00:00:0000:00:0000:00:00
KE7DJD2026-09-01 17:08:5043.58947-116.22689332°33km/h2832m6.4m/s8.9°C55.1%0hPa0V00:00:0000:00:0000:00:00
KE7DJD2026-09-01 17:08:3043.58779-116.22664346°51km/h2715m5.1m/s9.7°C56.1%0hPa0V00:00:0000:00:0000:00:00
KE7DJD2026-09-01 17:08:1043.58565-116.22616351°53km/h2602m5.7m/s10.7°C54.5%0hPa0V00:00:0000:00:0000:00:00
KE7DJD2026-09-01 17:07:4843.58353-116.22545356°47km/h2479m5.6m/s11.7°C54.7%0hPa0V00:00:0000:00:0000:00:00
KE7DJD2026-09-01 17:07:2743.58130-116.22431356°37km/h2346m7.2m/s13.0°C51.1%0hPa0V00:00:0000:00:0000:00:00
KE7DJD2026-09-01 17:07:0643.57914-116.22279318°35km/h2226m5.7m/s14.1°C48.6%0hPa0V00:00:0000:00:0000:00:00
KE7DJD2026-09-01 17:06:4743.57737-116.22143332°42km/h2085m7.3m/s15.2°C48.0%0hPa0V00:00:0000:00:0000:00:00
KE7DJD2026-09-01 17:06:2543.57560-116.22039328°26km/h1933m6.0m/s16.3°C48.5%0hPa0V00:00:0000:00:0000:00:00
KE7DJD2026-09-01 17:06:0443.57390-116.21945348°40km/h1794m6.3m/s17.6°C47.2%0hPa0V00:00:0000:00:0000:00:00
KE7DJD2026-09-01 17:05:4443.57270-116.21857295°24km/h1659m7.5m/s18.8°C44.7%0hPa0V00:00:0000:00:0000:00:00
KE7DJD2026-09-01 17:05:2443.57212-116.21770317°22km/h1493m9.8m/s0°C0%0hPa0V00:00:0000:00:0000:00:00
KE7DJD2026-09-01 17:05:0443.57096-116.21664292°22km/h1348m4.8m/s0°C0%0hPa0V00:00:0000:00:0000:00:00


GPX KML Map

© wettersonde.net (DO2JMG) - 2026  -  -